Terminal Aerodrome Forecast
Issued by NWS

Home | Current Version | Previous Version | Text Only | Print | Product List | Glossary On
Versions: 1 2 3 4 5 6 7 8 9 10 11 12 13 14 15
000
FTAK31 PAJN 251126
TAFAKT
TAF
PAKT 251126Z 2512/2612 VRB05KT P6SM VCFG OVC006
      TEMPO 2512/2515 4SM BR BKN004
     FM251700 13005KT P6SM SCT040
     FM252100 16012KT P6SM BKN060
     FM260400 15010G19KT P6SM VCSH OVC050
     FM260700 15013G22KT P6SM -RA OVC025
      AMD LTD TO CLD VIS AND WIND 2512/2515=

USA.gov is the U.S. government's official web portal to all federal, state and local government web resources and services.